Time;durP1;ratioP1;P1;durP2;ratioP2;P2;SDS_P1;SDS_P2;PMS_P1;PMS_P2;Temp;Humidity;BMP_temperature;BMP_pressure;BME280_temperature;BME280_humidity;BME280_pressure;Samples;Min_cycle;Max_cycle;Signal;HPM_P1;HPM_P2
2023/06/27 00:00:13;;;;;;;;;;;;;;;-140.72;100.00;52362.44;4992325;28;19924;-70
2023/06/27 00:02:39;;;;;;;;;;;;;;;-140.72;100.00;52370.56;4975318;28;19922;-70
2023/06/27 00:05:04;;;;;;;;;;;;;;;-140.72;100.00;52374.63;4991364;28;19922;-70
2023/06/27 00:07:30;;;;;;;;;;;;;;;-140.72;100.00;52380.72;4988037;28;19929;-70
2023/06/27 00:09:55;;;;;;;;;;;;;;;-140.72;100.00;52374.63;4996128;28;20314;-70
2023/06/27 00:12:20;;;;;;;;;;;;;;;-140.72;100.00;52413.19;4977126;28;19928;-70
2023/06/27 00:14:46;;;;;;;;;;;;;;;-140.72;100.00;52370.56;4995749;28;19918;-70
2023/06/27 00:17:12;;;;;;;;;;;;;;;-140.72;100.00;52366.50;4983588;28;19921;-70
2023/06/27 00:19:40;;;;;;;;;;;;;;;-140.72;100.00;52374.63;4995272;28;19918;-70
2023/06/27 00:22:09;;;;;;;;;;;;;;;-140.72;100.00;52313.75;4966817;28;19922;-70
2023/06/27 00:24:35;;;;;;;;;;;;;;;-140.72;100.00;52390.84;4989195;28;19922;-69
2023/06/27 00:27:00;;;;;;;;;;;;;;;-140.72;100.00;52374.63;4993826;28;19922;-69
2023/06/27 00:29:27;;;;;;;;;;;;;;;-140.72;100.00;52362.44;4995634;28;19914;-68
2023/06/27 00:31:55;;;;;;;;;;;;;;;-140.72;100.00;52370.56;4993380;28;20016;-69
2023/06/27 00:34:20;;;;;;;;;;;;;;;-140.72;100.00;52378.69;4984709;28;19924;-69
2023/06/27 00:36:45;;;;;;;;;;;;;;;-140.72;100.00;52390.84;4976849;28;20523;-69
2023/06/27 00:39:10;;;;;;;;;;;;;;;-140.72;100.00;52362.44;4975454;28;19917;-70
2023/06/27 00:41:35;;;;;;;;;;;;;;;-140.72;100.00;52401.00;4976963;28;20001;-69
2023/06/27 00:44:03;;;;;;;;;;;;;;;-140.72;100.00;52378.69;4989813;28;20016;-70
2023/06/27 00:46:39;;;;;;;;;;;;;;;-140.72;100.00;52396.94;4994684;28;19921;-69
2023/06/27 00:49:08;;;;;;;;;;;;;;;-140.72;100.00;52390.84;4993490;28;19922;-70
2023/06/27 00:51:34;;;;;;;;;;;;;;;-140.72;100.00;52378.69;4981847;28;19924;-70
2023/06/27 00:53:59;;;;;;;;;;;;;;;-140.72;100.00;52388.84;4991208;28;20017;-70
2023/06/27 00:56:26;;;;;;;;;;;;;;;-140.72;100.00;52356.38;4983251;28;19945;-70
2023/06/27 00:58:51;;;;;;;;;;;;;;;-140.72;100.00;52370.56;4993872;28;20000;-70
2023/06/27 01:01:17;;;;;;;;;;;;;;;-140.72;100.00;52366.50;4995282;28;19953;-70
2023/06/27 01:03:42;;;;;;;;;;;;;;;-140.72;100.00;52348.25;4994077;28;19926;-70
2023/06/27 01:06:10;;;;;;;;;;;;;;;-140.72;100.00;52372.59;4988526;28;19980;-70
2023/06/27 01:08:41;;;;;;;;;;;;;;;-140.72;100.00;52388.84;4995059;28;20024;-70
2023/06/27 01:11:11;;;;;;;;;;;;;;;-140.72;100.00;52392.88;4997494;28;19922;-69
2023/06/27 01:13:41;;;;;;;;;;;;;;;-140.72;100.00;52386.81;4988519;28;19965;-70
2023/06/27 01:16:08;;;;;;;;;;;;;;;-140.72;100.00;52378.69;4975049;28;20233;-70
2023/06/27 01:18:36;;;;;;;;;;;;;;;-140.72;100.00;52437.53;4991358;28;19922;-70
2023/06/27 01:21:02;;;;;;;;;;;;;;;-140.72;100.00;52407.09;4993095;28;20456;-70
2023/06/27 01:23:34;;;;;;;;;;;;;;;-140.72;100.00;52407.09;4976156;28;20016;-69
2023/06/27 01:26:09;;;;;;;;;;;;;;;-140.72;100.00;52378.69;4994900;28;19922;-70
2023/06/27 01:28:36;;;;;;;;;;;;;;;-140.72;100.00;52360.44;4993297;28;19922;-70
2023/06/27 01:31:02;;;;;;;;;;;;;;;-140.72;100.00;52407.09;4989487;28;20008;-69
2023/06/27 01:33:39;;;;;;;;;;;;;;;-140.72;100.00;52354.34;4994378;28;20387;-69
2023/06/27 01:36:09;;;;;;;;;;;;;;;-140.72;100.00;52384.78;4975601;28;19925;-69
2023/06/27 01:38:48;;;;;;;;;;;;;;;-140.72;100.00;52360.44;4994186;28;19928;-69
2023/06/27 01:41:16;;;;;;;;;;;;;;;-140.72;100.00;52370.56;4986323;28;19932;-69
2023/06/27 01:43:42;;;;;;;;;;;;;;;-140.72;100.00;52364.47;4994336;28;19945;-69
2023/06/27 01:46:08;;;;;;;;;;;;;;;-140.72;100.00;52388.84;4994296;28;19926;-69
2023/06/27 01:48:36;;;;;;;;;;;;;;;-140.72;100.00;52415.22;4994153;28;19925;-69
2023/06/27 01:51:01;;;;;;;;;;;;;;;-140.72;100.00;52354.34;4984401;28;20380;-69
2023/06/27 01:53:26;;;;;;;;;;;;;;;-140.72;100.00;52396.94;4991161;28;19928;-69
2023/06/27 01:55:52;;;;;;;;;;;;;;;-140.72;100.00;52366.50;4991218;28;19968;-69
2023/06/27 01:58:17;;;;;;;;;;;;;;;-140.72;100.00;52370.56;4991525;28;19922;-69
2023/06/27 02:00:43;;;;;;;;;;;;;;;-140.72;100.00;52390.84;4992528;28;19966;-69
2023/06/27 02:03:08;;;;;;;;;;;;;;;-140.72;100.00;52378.69;4990217;28;19921;-69
2023/06/27 02:05:33;;;;;;;;;;;;;;;-140.72;100.00;52382.75;4993393;28;19934;-70
2023/06/27 02:07:58;;;;;;;;;;;;;;;-140.72;100.00;52405.06;4967772;28;19922;-69
2023/06/27 02:10:24;;;;;;;;;;;;;;;-140.72;100.00;52390.84;4986855;28;19945;-70
2023/06/27 02:12:50;;;;;;;;;;;;;;;-140.72;100.00;52417.25;4981837;28;19922;-69
2023/06/27 02:15:16;;;;;;;;;;;;;;;-140.72;100.00;52405.06;4977730;28;19922;-69
2023/06/27 02:17:41;;;;;;;;;;;;;;;-140.72;100.00;52382.75;4983390;28;20017;-69
2023/06/27 02:20:06;;;;;;;;;;;;;;;-140.72;100.00;52425.34;4974906;28;19932;-69
2023/06/27 02:22:31;;;;;;;;;;;;;;;-140.72;100.00;52398.97;4975542;28;20012;-69
2023/06/27 02:24:57;;;;;;;;;;;;;;;-140.72;100.00;52401.00;4989767;28;19934;-69
2023/06/27 02:27:22;;;;;;;;;;;;;;;-140.72;100.00;52394.91;4983671;28;19921;-69
2023/06/27 02:29:47;;;;;;;;;;;;;;;-140.72;100.00;52378.69;4991492;28;19922;-69
2023/06/27 02:32:12;;;;;;;;;;;;;;;-140.72;100.00;52431.44;4992122;28;20463;-70
2023/06/27 02:34:39;;;;;;;;;;;;;;;-140.72;100.00;52407.09;4990804;28;20304;-69
2023/06/27 02:37:04;;;;;;;;;;;;;;;-140.72;100.00;52398.97;4987414;28;19922;-70
2023/06/27 02:39:29;;;;;;;;;;;;;;;-140.72;100.00;52384.78;4974711;28;20004;-69
2023/06/27 02:41:57;;;;;;;;;;;;;;;-140.72;100.00;52390.84;4991556;28;20434;-69
2023/06/27 02:44:22;;;;;;;;;;;;;;;-140.72;100.00;52403.03;4992615;28;19944;-69
2023/06/27 02:46:49;;;;;;;;;;;;;;;-140.72;100.00;52394.91;4984753;28;20110;-69
2023/06/27 02:49:14;;;;;;;;;;;;;;;-140.72;100.00;52435.50;4988830;28;20004;-69
2023/06/27 02:51:40;;;;;;;;;;;;;;;-140.72;100.00;52419.28;4981658;28;19969;-69
2023/06/27 02:54:06;;;;;;;;;;;;;;;-140.72;100.00;52415.22;4981489;28;19968;-69
2023/06/27 02:56:31;;;;;;;;;;;;;;;-140.72;100.00;52437.53;4984494;28;19948;-69
2023/06/27 02:58:56;;;;;;;;;;;;;;;-140.72;100.00;52425.34;4980641;28;19925;-69
2023/06/27 03:01:21;;;;;;;;;;;;;;;-140.72;100.00;52449.72;4971236;28;20335;-70
2023/06/27 03:03:47;;;;;;;;;;;;;;;-140.72;100.00;52435.50;4969152;28;19969;-69
2023/06/27 03:06:12;;;;;;;;;;;;;;;-140.72;100.00;52407.09;4981513;28;19917;-70
2023/06/27 03:08:38;;;;;;;;;;;;;;;-140.72;100.00;52407.09;4987580;28;19969;-70
2023/06/27 03:11:03;;;;;;;;;;;;;;;-140.72;100.00;52435.50;4979908;28;19918;-69
2023/06/27 03:13:29;;;;;;;;;;;;;;;-140.72;100.00;52447.69;4981675;28;19926;-70
2023/06/27 03:15:54;;;;;;;;;;;;;;;-140.72;100.00;52425.34;4994246;28;20355;-70
2023/06/27 03:18:19;;;;;;;;;;;;;;;-140.72;100.00;52398.97;4977123;28;20395;-69
2023/06/27 03:20:44;;;;;;;;;;;;;;;-140.72;100.00;52401.00;4991905;28;19918;-70
2023/06/27 03:23:10;;;;;;;;;;;;;;;-140.72;100.00;52401.00;4975426;28;19922;-69
2023/06/27 03:25:35;;;;;;;;;;;;;;;-140.72;100.00;52392.88;4989100;28;20291;-70
2023/06/27 03:28:02;;;;;;;;;;;;;;;-140.72;100.00;52433.47;4992508;28;19957;-70
2023/06/27 03:30:27;;;;;;;;;;;;;;;-140.72;100.00;52425.34;4988626;28;19929;-70
2023/06/27 03:32:54;;;;;;;;;;;;;;;-140.72;100.00;52405.06;4981196;28;19921;-70
2023/06/27 03:35:19;;;;;;;;;;;;;;;-140.72;100.00;52423.31;4990759;28;19956;-70
2023/06/27 03:37:44;;;;;;;;;;;;;;;-140.72;100.00;52435.50;4987162;28;19922;-70
2023/06/27 03:40:09;;;;;;;;;;;;;;;-140.72;100.00;52437.53;4987722;28;20030;-70
2023/06/27 03:42:35;;;;;;;;;;;;;;;-140.72;100.00;52431.44;4985675;28;20445;-70
2023/06/27 03:45:01;;;;;;;;;;;;;;;-140.72;100.00;52421.28;4973742;28;19922;-70
2023/06/27 03:47:27;;;;;;;;;;;;;;;-140.72;100.00;52427.38;4980869;28;19918;-70
2023/06/27 03:49:54;;;;;;;;;;;;;;;-140.72;100.00;52445.66;4993014;28;19921;-70
2023/06/27 03:52:20;;;;;;;;;;;;;;;-140.72;100.00;52419.28;4973232;28;19921;-70
2023/06/27 03:54:45;;;;;;;;;;;;;;;-140.72;100.00;52441.59;4992229;28;20383;-69
2023/06/27 03:57:10;;;;;;;;;;;;;;;-140.72;100.00;52449.72;4972506;28;20352;-70
2023/06/27 03:59:36;;;;;;;;;;;;;;;-140.72;100.00;52423.31;4981748;28;19980;-69
2023/06/27 04:02:01;;;;;;;;;;;;;;;-140.72;100.00;52417.25;4965897;28;20332;-70
2023/06/27 04:04:27;;;;;;;;;;;;;;;-140.72;100.00;52403.03;4985208;28;19925;-69
2023/06/27 04:06:52;;;;;;;;;;;;;;;-140.72;100.00;52427.38;4990261;28;20716;-69
2023/06/27 04:09:18;;;;;;;;;;;;;;;-140.72;100.00;52455.78;4987324;28;19926;-69
2023/06/27 04:11:43;;;;;;;;;;;;;;;-140.72;100.00;52447.69;4995526;28;20056;-69
2023/06/27 04:14:09;;;;;;;;;;;;;;;-140.72;100.00;52427.38;4994095;28;19921;-69
2023/06/27 04:16:34;;;;;;;;;;;;;;;-140.72;100.00;52419.28;4992908;28;19922;-71
2023/06/27 04:18:59;;;;;;;;;;;;;;;-140.72;100.00;52443.63;4989316;28;19917;-71
2023/06/27 04:21:24;;;;;;;;;;;;;;;-140.72;100.00;52421.28;4992500;28;19922;-72
2023/06/27 04:23:50;;;;;;;;;;;;;;;-140.72;100.00;52419.28;4989238;28;19949;-69
2023/06/27 04:26:17;;;;;;;;;;;;;;;-140.72;100.00;52421.28;4980958;28;19921;-69
2023/06/27 04:28:43;;;;;;;;;;;;;;;-140.72;100.00;52449.72;4993192;28;19928;-69
2023/06/27 04:31:10;;;;;;;;;;;;;;;-140.72;100.00;52437.53;4985216;28;20004;-70
2023/06/27 04:33:39;;;;;;;;;;;;;;;-140.72;100.00;52437.53;4970720;28;20004;-69
2023/06/27 04:36:07;;;;;;;;;;;;;;;-140.72;100.00;52415.22;4988491;28;19921;-71
2023/06/27 04:38:37;;;;;;;;;;;;;;;-140.72;100.00;52419.28;4993849;28;20320;-73
2023/06/27 04:41:12;;;;;;;;;;;;;;;-140.72;100.00;52449.72;4993321;28;20356;-70
2023/06/27 04:43:39;;;;;;;;;;;;;;;-140.72;100.00;52433.47;4992055;28;19927;-70
2023/06/27 04:46:04;;;;;;;;;;;;;;;-140.72;100.00;52467.97;4993253;28;19922;-71
2023/06/27 04:48:30;;;;;;;;;;;;;;;-140.72;100.00;52431.44;4976245;28;20001;-71
2023/06/27 04:50:56;;;;;;;;;;;;;;;-140.72;100.00;52457.81;4993012;28;19967;-70
2023/06/27 04:53:21;;;;;;;;;;;;;;;-140.72;100.00;52427.38;4989332;28;20092;-70
2023/06/27 04:55:47;;;;;;;;;;;;;;;-140.72;100.00;52447.69;4991064;28;20391;-71
2023/06/27 04:58:13;;;;;;;;;;;;;;;-140.72;100.00;52455.78;4969471;28;19922;-72
2023/06/27 05:00:38;;;;;;;;;;;;;;;-140.72;100.00;52419.28;4975550;28;19933;-71
2023/06/27 05:03:03;;;;;;;;;;;;;;;-140.72;100.00;52421.28;4991779;28;19980;-71
2023/06/27 05:05:33;;;;;;;;;;;;;;;-140.72;100.00;52417.25;4972995;28;19996;-70
2023/06/27 05:08:00;;;;;;;;;;;;;;;-140.72;100.00;52407.09;4971887;28;19932;-71
2023/06/27 05:10:25;;;;;;;;;;;;;;;-140.72;100.00;52419.28;4989695;28;19961;-70
2023/06/27 05:12:50;;;;;;;;;;;;;;;-140.72;100.00;52409.13;4989849;28;20005;-70
2023/06/27 05:15:16;;;;;;;;;;;;;;;-140.72;100.00;52388.84;4972778;28;19922;-70
2023/06/27 05:17:49;;;;;;;;;;;;;;;-140.72;100.00;52409.13;4983479;28;20315;-70
2023/06/27 05:20:14;;;;;;;;;;;;;;;-140.72;100.00;52431.44;4978473;28;19918;-70
2023/06/27 05:22:40;;;;;;;;;;;;;;;-140.72;100.00;52421.28;4975061;28;19989;-70
2023/06/27 05:25:05;;;;;;;;;;;;;;;-140.72;100.00;52427.38;4926864;28;1828849;-68
2023/06/27 05:27:30;;;;;;;;;;;;;;;-140.72;100.00;52427.38;4991254;28;19926;-68
2023/06/27 05:29:56;;;;;;;;;;;;;;;-140.72;100.00;52425.34;4972633;28;19929;-68
2023/06/27 05:32:21;;;;;;;;;;;;;;;-140.72;100.00;52398.97;4989959;28;20288;-69
2023/06/27 05:34:46;;;;;;;;;;;;;;;-140.72;100.00;52403.03;4974865;28;20069;-68
2023/06/27 05:37:11;;;;;;;;;;;;;;;-140.72;100.00;52409.13;4967027;28;19922;-68
2023/06/27 05:39:45;;;;;;;;;;;;;;;-140.72;100.00;52425.34;4993465;28;19922;-69
2023/06/27 05:42:10;;;;;;;;;;;;;;;-140.72;100.00;52405.06;4983173;28;20006;-69
2023/06/27 05:44:35;;;;;;;;;;;;;;;-140.72;100.00;52415.22;4990968;28;19929;-69
2023/06/27 05:47:00;;;;;;;;;;;;;;;-140.72;100.00;52394.91;4987548;28;19918;-69
2023/06/27 05:49:25;;;;;;;;;;;;;;;-140.72;100.00;52372.59;4991180;28;19937;-70
2023/06/27 05:51:51;;;;;;;;;;;;;;;-140.72;100.00;52392.88;4971669;28;20000;-68
2023/06/27 05:54:16;;;;;;;;;;;;;;;-140.72;100.00;52419.28;5003128;28;19949;-68
2023/06/27 05:56:41;;;;;;;;;;;;;;;-140.72;100.00;52386.81;4994114;28;19961;-68
2023/06/27 05:59:08;;;;;;;;;;;;;;;-140.72;100.00;52394.91;4994130;28;19969;-70
2023/06/27 06:01:35;;;;;;;;;;;;;;;-140.72;100.00;52382.75;4985048;28;19917;-68
2023/06/27 06:04:00;;;;;;;;;;;;;;;-140.72;100.00;52405.06;4990890;28;19987;-68
2023/06/27 06:06:25;;;;;;;;;;;;;;;-140.72;100.00;52330.00;4990437;28;19926;-69
2023/06/27 06:08:51;;;;;;;;;;;;;;;-140.72;100.00;52362.44;4974386;28;20002;-68
2023/06/27 06:11:16;;;;;;;;;;;;;;;-140.72;100.00;52336.06;4989927;28;19922;-68
2023/06/27 06:13:41;;;;;;;;;;;;;;;-140.72;100.00;52382.75;4972908;28;19918;-70
2023/06/27 06:16:06;;;;;;;;;;;;;;;-140.72;100.00;52321.88;4982463;28;20423;-69
2023/06/27 06:18:32;;;;;;;;;;;;;;;-140.72;100.00;52374.63;4973253;28;19925;-68
2023/06/27 06:20:57;;;;;;;;;;;;;;;-140.72;100.00;52372.59;4992458;28;19930;-68
2023/06/27 06:23:22;;;;;;;;;;;;;;;-140.72;100.00;52338.09;4999419;28;20436;-68
2023/06/27 06:25:47;;;;;;;;;;;;;;;-140.72;100.00;52382.75;4992948;28;20164;-68
2023/06/27 06:28:13;;;;;;;;;;;;;;;-140.72;100.00;52340.13;4987695;28;19917;-68
2023/06/27 06:30:38;;;;;;;;;;;;;;;-140.72;89.85;52330.00;4988507;28;19922;-68
2023/06/27 06:33:03;;;;;;;;;;;;;;;-140.72;64.53;52358.41;4986566;28;20016;-68
2023/06/27 06:35:28;;;;;;;;;;;;;;;-140.72;52.28;52336.06;4991078;28;19961;-68
2023/06/27 06:37:54;;;;;;;;;;;;;;;-140.72;33.36;52334.03;4985320;28;19925;-68
2023/06/27 06:40:19;;;;;;;;;;;;;;;-140.72;0.00;52325.94;4976958;28;19918;-68
2023/06/27 06:42:44;;;;;;;;;;;;;;;-140.72;0.00;52315.78;4988132;28;19918;-68
2023/06/27 06:45:09;;;;;;;;;;;;;;;-140.72;0.00;52303.59;4975931;28;20008;-68
2023/06/27 06:47:35;;;;;;;;;;;;;;;-140.72;0.00;52273.19;4975425;28;19966;-69
2023/06/27 06:50:00;;;;;;;;;;;;;;;-140.72;0.00;52281.28;4991481;28;20009;-69
2023/06/27 06:52:25;;;;;;;;;;;;;;;-140.72;0.00;52295.50;4991646;28;20437;-69
2023/06/27 06:54:50;;;;;;;;;;;;;;;-140.72;0.00;52285.34;4976883;28;20367;-68
2023/06/27 06:57:16;;;;;;;;;;;;;;;-140.72;0.00;52285.34;4995010;28;19925;-68
2023/06/27 06:59:41;;;;;;;;;;;;;;;-140.72;0.00;52301.59;4993819;28;19918;-69
2023/06/27 07:02:06;;;;;;;;;;;;;;;-140.72;0.00;52250.84;4994236;28;19918;-69
2023/06/27 07:04:31;;;;;;;;;;;;;;;-140.72;0.00;52271.16;4980431;28;19996;-68
2023/06/27 07:06:57;;;;;;;;;;;;;;;-140.72;0.00;52303.59;4980587;28;19960;-69
2023/06/27 07:09:22;;;;;;;;;;;;;;;-140.72;0.00;52248.81;4974339;28;19944;-68
2023/06/27 07:11:50;;;;;;;;;;;;;;;-140.72;0.00;52216.34;4984101;28;19918;-69
2023/06/27 07:14:17;;;;;;;;;;;;;;;-140.72;0.00;52261.00;4991914;28;19917;-69
2023/06/27 07:16:43;;;;;;;;;;;;;;;-140.72;0.00;52224.47;4979001;28;20352;-68
2023/06/27 07:19:08;;;;;;;;;;;;;;;-140.72;0.00;52240.72;4991775;28;19922;-69
2023/06/27 07:21:34;;;;;;;;;;;;;;;-140.72;0.00;52236.66;4990873;28;19925;-67
2023/06/27 07:24:00;;;;;;;;;;;;;;;-140.72;0.00;52277.22;4973871;28;20012;-69
2023/06/27 07:26:25;;;;;;;;;;;;;;;-140.72;0.00;52265.06;4989893;28;20068;-68
2023/06/27 07:28:50;;;;;;;;;;;;;;;-140.72;0.00;52305.63;4991715;28;19918;-68
2023/06/27 07:31:15;;;;;;;;;;;;;;;-140.72;0.00;52281.28;4989950;28;20446;-68
2023/06/27 07:33:41;;;;;;;;;;;;;;;-140.72;0.00;52275.19;4984526;28;19961;-68
2023/06/27 07:36:06;;;;;;;;;;;;;;;-140.72;0.00;52236.66;4986402;28;19925;-69
2023/06/27 07:38:31;;;;;;;;;;;;;;;-140.72;0.00;52256.94;4987711;28;19941;-68
2023/06/27 07:40:57;;;;;;;;;;;;;;;-140.72;0.00;52218.38;4985276;28;19924;-69
2023/06/27 07:43:22;;;;;;;;;;;;;;;-140.72;0.00;52226.50;4992196;28;19918;-68
2023/06/27 07:45:47;;;;;;;;;;;;;;;-140.72;0.00;52240.72;4990805;28;19930;-68
2023/06/27 07:48:13;;;;;;;;;;;;;;;-140.72;0.00;52220.41;4963634;28;19918;-69
2023/06/27 07:50:38;;;;;;;;;;;;;;;-140.72;0.00;52240.72;4994084;28;19925;-69
2023/06/27 07:53:03;;;;;;;;;;;;;;;-140.72;0.00;52196.06;4974578;28;19922;-69
2023/06/27 07:55:28;;;;;;;;;;;;;;;-140.72;0.00;52212.31;4976875;28;19925;-68
2023/06/27 07:57:54;;;;;;;;;;;;;;;-140.72;0.00;52208.25;4978005;28;19918;-68
2023/06/27 08:00:20;;;;;;;;;;;;;;;-140.72;0.00;52224.47;4988327;28;20283;-69
2023/06/27 08:02:45;;;;;;;;;;;;;;;-140.72;0.00;52240.72;4990218;28;19918;-69
2023/06/27 08:05:10;;;;;;;;;;;;;;;-140.72;0.00;52192.00;4987881;28;20375;-69
2023/06/27 08:07:36;;;;;;;;;;;;;;;-140.72;0.00;52216.34;4993347;28;19918;-69
2023/06/27 08:10:01;;;;;;;;;;;;;;;-140.72;0.00;52208.25;4978636;28;20391;-69
2023/06/27 08:12:26;;;;;;;;;;;;;;;-140.72;0.00;52214.34;4977806;28;19925;-69
2023/06/27 08:14:51;;;;;;;;;;;;;;;-140.72;0.00;52206.22;4988933;28;19925;-69
2023/06/27 08:17:17;;;;;;;;;;;;;;;-140.72;0.00;52204.19;4995050;28;19917;-69
2023/06/27 08:19:42;;;;;;;;;;;;;;;-140.72;0.00;52224.47;4995029;28;19929;-69
2023/06/27 08:22:07;;;;;;;;;;;;;;;-140.72;0.00;52216.34;4977162;28;19988;-69
2023/06/27 08:24:33;;;;;;;;;;;;;;;-140.72;0.00;52228.53;4993928;28;20368;-69
2023/06/27 08:26:58;;;;;;;;;;;;;;;-140.72;0.00;52206.22;4982745;28;19963;-69
2023/06/27 08:29:25;;;;;;;;;;;;;;;-140.72;0.00;52179.84;4994009;28;19920;-69
2023/06/27 08:31:54;;;;;;;;;;;;;;;-140.72;0.00;52220.41;4994202;28;19917;-69
2023/06/27 08:34:19;;;;;;;;;;;;;;;-140.72;0.00;52202.16;4994667;28;19918;-69
2023/06/27 08:36:44;;;;;;;;;;;;;;;-140.72;0.00;52248.81;4975960;28;19924;-69
2023/06/27 08:39:09;;;;;;;;;;;;;;;-140.72;0.00;52187.97;4965677;28;19937;-69
2023/06/27 08:41:35;;;;;;;;;;;;;;;-140.72;0.00;52281.28;4992744;28;19932;-69
2023/06/27 08:44:01;;;;;;;;;;;;;;;-140.72;0.00;52240.72;4991871;28;19972;-69
2023/06/27 08:46:27;;;;;;;;;;;;;;;-140.72;0.00;52261.00;4986302;28;19998;-69
2023/06/27 08:48:55;;;;;;;;;;;;;;;-140.72;0.00;52244.78;4989762;28;19961;-69
2023/06/27 08:51:21;;;;;;;;;;;;;;;-140.72;0.00;52228.53;4992502;28;19918;-69
2023/06/27 08:53:48;;;;;;;;;;;;;;;-140.72;0.00;52232.59;4979938;28;19925;-68
2023/06/27 08:56:14;;;;;;;;;;;;;;;-140.72;0.00;52200.13;4983339;28;20424;-69
2023/06/27 08:58:41;;;;;;;;;;;;;;;-140.72;0.00;52216.34;4983041;28;20009;-69
2023/06/27 09:01:07;;;;;;;;;;;;;;;-140.72;0.00;52232.59;4982656;28;19918;-69
2023/06/27 09:03:33;;;;;;;;;;;;;;;-140.72;0.00;52200.13;4994098;28;19925;-69
2023/06/27 09:05:59;;;;;;;;;;;;;;;-140.72;0.00;52196.06;4990174;28;20004;-69
2023/06/27 09:08:24;;;;;;;;;;;;;;;-140.72;0.00;52196.06;4969294;28;19981;-69
2023/06/27 09:10:50;;;;;;;;;;;;;;;-140.72;0.00;52202.16;4977996;28;19918;-69
2023/06/27 09:13:16;;;;;;;;;;;;;;;-140.72;0.00;52214.34;4984704;28;20376;-69
2023/06/27 09:15:41;;;;;;;;;;;;;;;-140.72;0.00;52198.09;4990959;28;19945;-69
2023/06/27 09:18:07;;;;;;;;;;;;;;;-140.72;0.00;52173.75;4976756;28;20265;-69
2023/06/27 09:20:32;;;;;;;;;;;;;;;-140.72;0.00;52187.97;4994572;28;19918;-69
2023/06/27 09:22:58;;;;;;;;;;;;;;;-140.72;0.00;52228.53;4993132;28;19928;-69
2023/06/27 09:25:23;;;;;;;;;;;;;;;-140.72;0.00;52194.03;4991731;28;19928;-69
2023/06/27 09:27:49;;;;;;;;;;;;;;;-140.72;0.00;52194.03;4991350;28;19961;-69
2023/06/27 09:30:14;;;;;;;;;;;;;;;-140.72;0.00;52179.84;4992312;28;19918;-69
2023/06/27 09:32:54;;;;;;;;;;;;;;;-140.72;0.00;52179.84;4965885;28;20053;-69
2023/06/27 09:35:20;;;;;;;;;;;;;;;-140.72;0.00;52106.78;4993871;28;19925;-69
2023/06/27 09:37:45;;;;;;;;;;;;;;;-140.72;0.00;52088.53;4966237;28;19918;-69
2023/06/27 09:40:18;;;;;;;;;;;;;;;-140.72;0.00;52035.78;4991143;28;20013;-69
2023/06/27 09:42:53;;;;;;;;;;;;;;;-140.72;0.00;52086.50;4964165;28;19918;-69
2023/06/27 09:45:19;;;;;;;;;;;;;;;-140.72;0.00;52062.16;4976106;28;19918;-69
2023/06/27 09:47:47;;;;;;;;;;;;;;;-140.72;0.00;52084.47;4987636;28;19926;-69
2023/06/27 09:50:12;;;;;;;;;;;;;;;-140.72;0.00;52076.34;4986778;28;19924;-69
2023/06/27 09:52:37;;;;;;;;;;;;;;;-140.72;0.00;52110.84;4991978;28;19918;-69
2023/06/27 09:55:03;;;;;;;;;;;;;;;-140.72;0.00;52149.41;4960219;28;20029;-69
2023/06/27 09:57:29;;;;;;;;;;;;;;;-140.72;0.00;52106.78;4988338;28;19925;-69
2023/06/27 09:59:58;;;;;;;;;;;;;;;-140.72;0.00;52116.94;4975860;28;19918;-69
2023/06/27 10:02:27;;;;;;;;;;;;;;;-140.72;0.00;52084.47;4987995;28;19925;-69
2023/06/27 10:04:53;;;;;;;;;;;;;;;-140.72;0.00;52125.06;4974808;28;19918;-69
2023/06/27 10:07:18;;;;;;;;;;;;;;;-140.72;0.00;52084.47;4977690;28;19929;-69
2023/06/27 10:09:43;;;;;;;;;;;;;;;-140.72;0.00;52052.00;4993698;28;19925;-69
2023/06/27 10:12:09;;;;;;;;;;;;;;;-140.72;0.00;52023.59;4964822;28;19933;-69
2023/06/27 10:14:34;;;;;;;;;;;;;;;-140.72;0.00;52033.75;4993921;28;19983;-69
2023/06/27 10:17:00;;;;;;;;;;;;;;;-140.72;0.00;52023.59;4992489;28;19917;-69
2023/06/27 10:19:25;;;;;;;;;;;;;;;-140.72;0.00;52070.28;4982782;28;19918;-69
2023/06/27 10:21:51;;;;;;;;;;;;;;;-140.72;0.00;52106.78;4990214;28;20331;-69
2023/06/27 10:24:16;;;;;;;;;;;;;;;-140.72;0.00;52106.78;4992464;28;19918;-69
2023/06/27 10:26:49;;;;;;;;;;;;;;;-140.72;0.00;52066.22;4991894;28;19925;-69
2023/06/27 10:29:14;;;;;;;;;;;;;;;-140.72;0.00;51981.00;4974884;28;19917;-69
2023/06/27 10:31:44;;;;;;;;;;;;;;;-140.72;0.00;51976.94;4992333;28;19925;-69
2023/06/27 10:34:10;;;;;;;;;;;;;;;-140.72;0.00;52021.56;4992592;28;19918;-69
2023/06/27 10:37:05;;;;;;;;;;;;;;;-140.72;0.00;51976.94;4991507;28;19917;-70
2023/06/27 10:39:31;;;;;;;;;;;;;;;-140.72;0.00;51958.69;4963990;28;19945;-69
2023/06/27 10:41:59;;;;;;;;;;;;;;;-140.72;0.00;52043.91;4974694;28;19918;-69
2023/06/27 10:44:24;;;;;;;;;;;;;;;-140.72;0.00;52039.84;4975072;28;20314;-69
2023/06/27 10:47:09;;;;;;;;;;;;;;;-140.72;0.00;52039.84;4983042;28;19918;-69
2023/06/27 10:49:35;;;;;;;;;;;;;;;-140.72;0.00;52033.75;4989736;28;19993;-69
2023/06/27 10:52:00;;;;;;;;;;;;;;;-140.72;0.00;52068.25;4984420;28;20335;-69
2023/06/27 10:54:26;;;;;;;;;;;;;;;-140.72;0.00;52005.34;4989484;28;19951;-69
2023/06/27 10:56:53;;;;;;;;;;;;;;;-140.72;0.00;51972.88;4962067;28;19925;-69
2023/06/27 10:59:19;;;;;;;;;;;;;;;-140.72;0.00;51962.75;4990395;28;19940;-69
2023/06/27 11:01:49;;;;;;;;;;;;;;;-140.72;0.00;51916.06;4974643;28;19917;-69
2023/06/27 11:04:25;;;;;;;;;;;;;;;-140.72;0.00;51887.66;4988876;28;19918;-69
2023/06/27 11:06:56;;;;;;;;;;;;;;;-140.72;0.00;51918.09;4985566;28;20364;-69
2023/06/27 11:09:22;;;;;;;;;;;;;;;-140.72;0.00;51895.78;4980059;28;20020;-69
2023/06/27 11:11:52;;;;;;;;;;;;;;;-140.72;0.00;51897.81;4990743;28;20372;-69
2023/06/27 11:14:31;;;;;;;;;;;;;;;-140.72;0.00;51869.41;4981968;28;20048;-68
2023/06/27 11:16:57;;;;;;;;;;;;;;;-140.72;0.00;51928.25;4976759;28;20005;-68
2023/06/27 11:19:23;;;;;;;;;;;;;;;-140.72;0.00;51950.56;4992970;28;19918;-69
2023/06/27 11:21:48;;;;;;;;;;;;;;;-140.72;0.00;51976.94;4991302;28;20373;-69
2023/06/27 11:24:13;;;;;;;;;;;;;;;-140.72;0.00;52023.59;4995176;28;19941;-68
2023/06/27 11:26:49;;;;;;;;;;;;;;;-140.72;0.00;51993.19;4979692;28;19969;-69
2023/06/27 11:29:14;;;;;;;;;;;;;;;-140.72;0.00;52005.34;4988702;28;20288;-68
2023/06/27 11:31:39;;;;;;;;;;;;;;;-140.72;0.00;52041.88;4977186;28;19972;-69
2023/06/27 11:34:04;;;;;;;;;;;;;;;-140.72;0.00;51964.78;4995323;28;20028;-68
2023/06/27 11:36:30;;;;;;;;;;;;;;;-140.72;0.00;51956.66;4994472;28;19921;-68
2023/06/27 11:38:55;;;;;;;;;;;;;;;-140.72;0.00;51960.72;4989879;28;19918;-68
2023/06/27 11:41:20;;;;;;;;;;;;;;;-140.72;0.00;51944.47;4994253;28;19918;-69
2023/06/27 11:43:46;;;;;;;;;;;;;;;-140.72;0.00;51924.19;4996435;28;19918;-69
2023/06/27 11:46:11;;;;;;;;;;;;;;;-140.72;0.00;51928.25;4987448;28;19922;-69
2023/06/27 11:48:41;;;;;;;;;;;;;;;-140.72;0.00;51903.91;4995904;28;20020;-69
2023/06/27 11:51:08;;;;;;;;;;;;;;;-140.72;0.00;51891.72;4990479;28;19965;-69
2023/06/27 11:53:35;;;;;;;;;;;;;;;-140.72;0.00;52031.72;4970798;28;20328;-68
2023/06/27 11:56:00;;;;;;;;;;;;;;;-140.72;0.00;51993.19;4993509;28;19930;-68
2023/06/27 11:58:27;;;;;;;;;;;;;;;-140.72;0.00;51966.81;4997016;28;19924;-68
2023/06/27 12:00:52;;;;;;;;;;;;;;;-140.72;0.00;51991.16;4986107;28;19928;-68
2023/06/27 12:03:24;;;;;;;;;;;;;;;-140.72;0.00;52009.41;4987579;28;20021;-68
2023/06/27 12:05:49;;;;;;;;;;;;;;;-140.72;0.00;51999.25;4978531;28;20367;-69
2023/06/27 12:08:20;;;;;;;;;;;;;;;-140.72;0.00;52021.56;4995230;28;19954;-68
2023/06/27 12:10:49;;;;;;;;;;;;;;;-140.72;0.00;52011.44;4982242;28;19925;-68
2023/06/27 12:13:15;;;;;;;;;;;;;;;-140.72;0.00;51991.16;4995124;28;20391;-68
2023/06/27 12:15:44;;;;;;;;;;;;;;;-140.72;0.00;52007.38;4982140;28;19917;-68
2023/06/27 12:18:11;;;;;;;;;;;;;;;-140.72;0.00;52025.63;4994324;28;19917;-68
2023/06/27 12:20:43;;;;;;;;;;;;;;;-140.72;0.00;52013.47;4984474;28;20021;-68